Aeroporto :
LOGIN :

Iscrizione | Disclaimer

   EN    FR    IT 

 










Sommario :    VFR   VFR Marginale   IFR   IFR Intensivo   IFR Molto Intensivo
Visibilità : 
Base nubi : 
>= 8 km
>= 3000ft
5 / 8 km
1000 / 3000 ft
1500m / 5 km
500 / 1000 ft
800 / 1500m
200 / 500 ft
< 800m
< 200 ft
Simboli :   Temporali  Nebbia  Neve Forte  Precipitazioni Forti  Vento > 20 kt
SIGMETs :   Varie  Temporali  Ghiacco  Turbolenza  Onda orograficha  Ceneri Vulcaniche






- Altitudine del aeroporto : 122 ft
- Codice IATA : TXL


EDDT - Berlin Tegel Int.

ULTIMO METAR :
  • 200450Z 32003KT 260V360 7000 -RADZ FEW003 BKN005 OVC025 05/05 Q1019 NOSIG

METARs OBSOLETI :
  • 200420Z 33003KT 300V360 7000 -RA FEW003 BKN004 OVC025 05/05 Q1019 NOSIG
  • 200350Z 33003KT 300V360 8000 -RA FEW004 OVC025 05/05 Q1019 TEMPO BKN012
  • 200320Z VRB02KT 8000 -RA FEW004 SCT012 OVC020 05/05 Q1019
  • 200250Z VRB02KT 9000 -RA FEW004 OVC020 05/05 Q1019
  • 200220Z VRB02KT 9999 -RA FEW004 OVC019 05/05 Q1019

TAF AMD TAF EDDT
Valido dal 20 a 04 ore il 21 a 00 ore UTC


200442Z 2004/2024 VRB02KT 9999 SCT015 BKN020
TEMPO 2004/2012 BKN013
PROB40
TEMPO 2004/2008 3500 -RADZ BR BKN004



MetMap, La meteo Aeronautica in un colpo d'occhio ! - Copyright ORBIFLY Dicembre 2007 - Disclaimer

ORBIFLY MET'MAP TEAM :

Programmazione e sviluppo : Alexandra Zaïnal
Concezione e sviluppo : Baudouin d'Aumeries
Co-Programmazione e sviluppo : Marc-Olivier Méhu
Supporto tecnico e logistico : Manuel Goepfert
Aiuto per la traduzione : Arnaldo La Scala

Contatto : metmap@orbifly.com




FONTI E CREDITI :

   NOAA